createdAt,value
2022-11-22T00:00:40.182Z,6.85
2022-11-22T00:03:07.091Z,6.86
2022-11-22T00:05:34.102Z,6.82
2022-11-22T00:08:01.102Z,6.82
2022-11-22T00:10:28.047Z,6.94
2022-11-22T00:12:55.209Z,6.88
2022-11-22T00:15:22.029Z,6.81
2022-11-22T00:17:49.086Z,6.68
2022-11-22T00:20:16.202Z,6.68
2022-11-22T00:22:44.913Z,6.78
2022-11-22T00:25:12.996Z,6.72
2022-11-22T00:27:40.142Z,6.63
2022-11-22T00:30:08.174Z,6.64
2022-11-22T00:32:35.224Z,6.70
2022-11-22T00:35:02.483Z,6.74
2022-11-22T00:37:29.326Z,6.67
2022-11-22T00:39:56.381Z,6.59
2022-11-22T00:42:23.284Z,6.56
2022-11-22T00:44:50.103Z,6.49
2022-11-22T00:47:16.936Z,6.41
2022-11-22T00:49:43.800Z,6.45
2022-11-22T00:52:10.591Z,6.48
2022-11-22T00:54:37.458Z,6.43
2022-11-22T00:57:04.385Z,6.48
2022-11-22T00:59:31.361Z,6.41
2022-11-22T01:01:58.357Z,6.41
2022-11-22T01:04:25.228Z,6.44
2022-11-22T01:06:52.082Z,6.40
2022-11-22T01:09:22.199Z,6.39
2022-11-22T01:11:49.457Z,6.44
2022-11-22T01:14:17.393Z,6.37
2022-11-22T01:16:44.832Z,6.30
2022-11-22T01:19:12.084Z,6.27
2022-11-22T01:21:39.694Z,6.20
2022-11-22T01:24:06.996Z,6.22
2022-11-22T01:26:34.216Z,6.22
2022-11-22T01:29:01.375Z,6.14
2022-11-22T01:31:30.064Z,6.20
2022-11-22T01:33:57.730Z,6.13
2022-11-22T01:36:25.002Z,6.12
2022-11-22T01:38:52.281Z,6.16
2022-11-22T01:41:19.177Z,6.13
2022-11-22T01:43:46.043Z,6.25
2022-11-22T01:46:25.426Z,6.24
2022-11-22T01:49:05.984Z,6.22
2022-11-22T01:51:37.887Z,6.29
2022-11-22T01:54:09.710Z,6.29
2022-11-22T01:56:38.382Z,6.29
2022-11-22T01:59:10.271Z,6.17
2022-11-22T02:01:37.935Z,6.21
2022-11-22T02:04:06.821Z,6.22
2022-11-22T02:06:46.980Z,6.27
2022-11-22T02:09:17.113Z,6.15
2022-11-22T02:11:48.506Z,6.12
2022-11-22T02:14:18.962Z,6.10
2022-11-22T02:16:47.774Z,5.99
2022-11-22T02:19:33.954Z,6.01
2022-11-22T02:22:11.294Z,5.98
2022-11-22T02:24:48.641Z,6.10
2022-11-22T02:27:15.595Z,6.16
2022-11-22T02:29:43.013Z,6.19
2022-11-22T02:32:09.811Z,6.17
2022-11-22T02:34:50.958Z,6.20
2022-11-22T02:37:24.192Z,6.26
2022-11-22T02:39:58.808Z,6.22
2022-11-22T02:42:27.009Z,6.22
2022-11-22T02:44:54.000Z,6.24
2022-11-22T02:47:20.863Z,6.18
2022-11-22T02:49:47.751Z,6.18
2022-11-22T02:52:18.742Z,6.11
2022-11-22T02:54:46.406Z,6.09
2022-11-22T02:57:13.545Z,6.07
2022-11-22T02:59:40.453Z,6.09
2022-11-22T03:02:07.264Z,6.18
2022-11-22T03:04:34.081Z,6.13
2022-11-22T03:25:57.441Z,5.45
2022-11-22T03:28:24.211Z,5.62
2022-11-22T03:30:51.047Z,5.82
2022-11-22T03:33:17.914Z,5.94
2022-11-22T03:35:44.741Z,5.99
2022-11-22T03:38:11.622Z,6.09
2022-11-22T03:40:38.577Z,6.09
2022-11-22T03:43:05.399Z,6.16
2022-11-22T03:45:32.292Z,6.23
2022-11-22T03:47:59.170Z,6.27
2022-11-22T03:50:26.211Z,6.27
2022-11-22T03:52:53.008Z,6.23
2022-11-22T03:55:19.884Z,6.32
2022-11-22T03:57:46.770Z,6.34
2022-11-22T04:00:14.142Z,6.35
2022-11-22T04:02:43.808Z,6.18
2022-11-22T04:05:11.012Z,6.19
2022-11-22T04:07:38.062Z,6.27
2022-11-22T04:10:06.036Z,6.28
2022-11-22T04:12:34.282Z,6.17
2022-11-22T04:15:07.555Z,6.11
2022-11-22T04:17:44.173Z,6.11
2022-11-22T04:20:36.160Z,6.12
2022-11-22T04:23:09.112Z,6.13
2022-11-22T04:25:38.086Z,6.20
2022-11-22T04:28:06.581Z,6.19
2022-11-22T04:30:52.865Z,6.19
2022-11-22T04:33:21.186Z,6.21
2022-11-22T04:35:48.692Z,6.27
2022-11-22T04:38:17.309Z,6.17
2022-11-22T04:40:44.834Z,6.00
2022-11-22T04:43:45.107Z,5.98
2022-11-22T04:46:13.034Z,5.92
2022-11-22T04:48:39.977Z,5.93
2022-11-22T04:51:26.473Z,5.89
2022-11-22T04:53:53.284Z,5.90
2022-11-22T04:56:20.253Z,5.78
2022-11-22T04:58:47.015Z,5.80
2022-11-22T05:01:14.116Z,5.74
2022-11-22T05:03:41.010Z,5.80
2022-11-22T05:06:07.893Z,5.81
2022-11-22T05:08:34.743Z,5.84
2022-11-22T05:11:01.662Z,5.87
2022-11-22T05:13:32.454Z,5.90
2022-11-22T05:16:00.960Z,5.89
2022-11-22T05:18:28.932Z,5.82
2022-11-22T05:20:56.582Z,5.80
2022-11-22T05:23:42.461Z,5.83
2022-11-22T05:26:11.125Z,5.88
2022-11-22T05:28:41.602Z,5.87
2022-11-22T05:31:17.499Z,5.97
2022-11-22T05:33:46.099Z,6.00
2022-11-22T05:36:13.522Z,5.97
2022-11-22T05:38:40.669Z,6.06
2022-11-22T05:41:10.135Z,6.13
2022-11-22T05:43:37.185Z,6.15
2022-11-22T05:46:22.329Z,6.06
2022-11-22T05:48:51.333Z,6.12
2022-11-22T05:51:20.926Z,6.19
2022-11-22T05:53:48.307Z,6.31
2022-11-22T05:56:23.681Z,6.22
2022-11-22T05:58:51.240Z,6.26
2022-11-22T06:01:21.072Z,6.22
2022-11-22T06:03:49.136Z,6.12
2022-11-22T06:06:16.405Z,6.08
2022-11-22T06:08:48.502Z,5.97
2022-11-22T06:11:21.893Z,5.98
2022-11-22T06:13:51.504Z,5.94
2022-11-22T06:16:18.472Z,6.44
2022-11-22T06:18:45.647Z,7.77
2022-11-22T06:21:24.046Z,8.84
2022-11-22T06:23:55.597Z,9.79
2022-11-22T06:26:24.357Z,10.86
2022-11-22T06:28:52.011Z,11.49
2022-11-22T06:31:27.827Z,11.87
2022-11-22T06:33:56.696Z,11.16
2022-11-22T06:36:26.328Z,12.19
2022-11-22T06:38:53.910Z,11.98
2022-11-22T06:41:31.210Z,12.22
2022-11-22T06:43:58.151Z,11.90
2022-11-22T06:46:27.120Z,13.39
2022-11-22T06:48:54.063Z,14.63
2022-11-22T06:51:26.268Z,14.86
2022-11-22T06:53:56.798Z,15.22
2022-11-22T06:56:26.672Z,14.47
2022-11-22T06:58:54.274Z,13.34
2022-11-22T07:01:29.295Z,13.18
2022-11-22T07:03:58.688Z,14.61
2022-11-22T07:06:28.614Z,16.01
2022-11-22T07:08:56.212Z,15.75
2022-11-22T07:11:28.616Z,15.53
2022-11-22T07:14:01.898Z,13.27
2022-11-22T07:16:32.238Z,13.96
2022-11-22T07:19:00.548Z,14.17
2022-11-22T07:21:27.841Z,14.08
2022-11-22T07:23:55.973Z,13.99
2022-11-22T07:26:26.101Z,15.11
2022-11-22T07:28:53.114Z,16.43
2022-11-22T07:31:20.346Z,15.87
2022-11-22T07:33:47.807Z,15.10
2022-11-22T07:36:17.248Z,15.42
2022-11-22T07:38:45.564Z,15.62
2022-11-22T07:41:13.323Z,16.16
2022-11-22T07:43:40.429Z,16.23
2022-11-22T07:46:17.722Z,16.40
2022-11-22T07:48:44.551Z,16.59
2022-11-22T07:51:11.519Z,16.75
2022-11-22T07:53:38.447Z,17.15
2022-11-22T07:56:06.515Z,18.02
2022-11-22T07:58:34.558Z,20.49
2022-11-22T08:01:21.001Z,20.59
2022-11-22T08:03:48.164Z,20.97
2022-11-22T08:06:16.035Z,20.04
2022-11-22T08:08:43.284Z,19.38
2022-11-22T08:11:11.344Z,18.25
2022-11-22T08:13:38.941Z,16.23
2022-11-22T08:16:12.627Z,15.25
2022-11-22T08:18:40.211Z,14.73
2022-11-22T08:21:11.863Z,13.98
2022-11-22T08:23:40.092Z,15.15
2022-11-22T08:26:08.779Z,14.82
2022-11-22T08:28:36.392Z,15.05
2022-11-22T08:31:10.507Z,15.79
2022-11-22T08:33:38.141Z,18.49
2022-11-22T08:36:05.505Z,19.96
2022-11-22T08:38:32.507Z,20.08
2022-11-22T08:40:59.554Z,18.77
2022-11-22T08:43:26.466Z,19.21
2022-11-22T08:45:59.147Z,19.80
2022-11-22T08:48:27.322Z,18.51
2022-11-22T08:50:56.299Z,18.13
2022-11-22T08:53:23.620Z,19.62
2022-11-22T08:55:50.605Z,19.34
2022-11-22T08:58:17.762Z,20.71
2022-11-22T09:00:44.827Z,19.99
2022-11-22T09:03:11.661Z,21.69
2022-11-22T09:08:25.698Z,21.02
2022-11-22T09:10:52.880Z,20.25
2022-11-22T09:13:19.650Z,19.68
2022-11-22T09:15:46.880Z,19.25
2022-11-22T09:18:13.724Z,18.88
2022-11-22T09:20:40.611Z,18.99
2022-11-22T09:23:07.476Z,19.75
2022-11-22T09:25:34.380Z,20.86
2022-11-22T09:28:04.004Z,21.29
2022-11-22T09:30:31.242Z,20.89
2022-11-22T09:32:58.330Z,20.55
2022-11-22T09:35:25.117Z,19.85
2022-11-22T09:37:51.936Z,22.66
2022-11-22T09:40:18.845Z,21.97
2022-11-22T09:43:07.069Z,21.86
2022-11-22T09:45:51.912Z,22.26
2022-11-22T09:48:32.993Z,20.49
2022-11-22T09:51:23.345Z,20.76
2022-11-22T09:54:22.848Z,21.59
2022-11-22T09:56:54.323Z,20.96
2022-11-22T09:59:30.546Z,21.22
2022-11-22T10:02:20.097Z,22.66
2022-11-22T10:05:08.117Z,21.48
2022-11-22T10:07:43.525Z,23.55
2022-11-22T10:10:19.016Z,21.72
2022-11-22T10:13:04.381Z,22.92
2022-11-22T10:15:37.089Z,22.75
2022-11-22T10:18:32.161Z,23.79
2022-11-22T10:20:59.099Z,23.56
2022-11-22T10:23:26.921Z,23.62
2022-11-22T10:26:14.662Z,25.80
2022-11-22T10:29:05.221Z,24.89
2022-11-22T10:31:44.300Z,24.44
2022-11-22T10:34:29.595Z,26.01
2022-11-22T10:37:05.510Z,23.56
2022-11-22T10:39:42.225Z,24.61
2022-11-22T10:42:26.497Z,23.37
2022-11-22T10:44:58.429Z,21.87
2022-11-22T10:47:43.543Z,22.71
2022-11-22T10:50:49.031Z,22.33
2022-11-22T10:53:49.383Z,24.21
2022-11-22T10:56:41.000Z,21.71
2022-11-22T10:59:36.566Z,21.44
2022-11-22T11:02:16.523Z,23.09
2022-11-22T11:04:44.888Z,22.37
2022-11-22T11:07:19.442Z,21.74
2022-11-22T11:12:47.900Z,23.21
2022-11-22T11:15:23.315Z,23.62
2022-11-22T11:17:57.613Z,21.77
2022-11-22T11:20:31.852Z,22.15
2022-11-22T11:23:14.234Z,23.37
2022-11-22T11:25:44.051Z,24.63
2022-11-22T11:28:13.586Z,26.58
2022-11-22T11:30:44.058Z,25.60
2022-11-22T11:33:32.106Z,25.32
2022-11-22T11:36:22.133Z,27.51
2022-11-22T11:38:57.146Z,24.38
2022-11-22T11:41:31.328Z,21.87
2022-11-22T11:44:00.745Z,22.73
2022-11-22T11:46:29.908Z,23.44
2022-11-22T11:49:37.261Z,22.04
2022-11-22T11:52:08.796Z,20.80
2022-11-22T11:54:38.719Z,20.53
2022-11-22T11:57:10.880Z,20.08
2022-11-22T11:59:37.776Z,20.59
2022-11-22T12:02:14.001Z,20.64
2022-11-22T12:04:53.205Z,23.07
2022-11-22T12:07:36.016Z,24.23
2022-11-22T12:10:41.373Z,23.29
2022-11-22T12:13:14.254Z,23.82
2022-11-22T12:15:52.423Z,23.01
2022-11-22T12:18:37.627Z,21.42
2022-11-22T12:21:32.503Z,19.33
2022-11-22T12:24:41.395Z,16.86
2022-11-22T12:26:58.048Z,15.01
2022-11-22T12:29:25.242Z,14.45
2022-11-22T12:32:05.321Z,14.00
2022-11-22T12:34:56.524Z,13.46
2022-11-22T12:37:42.175Z,13.25
2022-11-22T12:40:18.844Z,12.84
2022-11-22T12:42:57.562Z,12.70
2022-11-22T12:45:32.922Z,12.83
2022-11-22T12:48:06.993Z,12.60
2022-11-22T12:50:38.534Z,12.71
2022-11-22T12:53:13.593Z,12.52
2022-11-22T12:55:51.993Z,12.74
2022-11-22T12:58:33.685Z,12.57
2022-11-22T13:01:41.840Z,12.39
2022-11-22T13:04:11.721Z,11.84
2022-11-22T13:07:01.939Z,11.73
2022-11-22T13:09:32.158Z,11.62
2022-11-22T13:12:06.889Z,11.42
2022-11-22T13:14:42.540Z,11.52
2022-11-22T13:17:12.258Z,11.47
2022-11-22T13:19:49.430Z,11.45
2022-11-22T13:22:25.274Z,11.44
2022-11-22T13:25:29.557Z,11.24
2022-11-22T13:28:01.194Z,11.23
2022-11-22T13:30:30.278Z,11.28
2022-11-22T13:32:59.598Z,11.21
2022-11-22T13:35:31.669Z,11.14
2022-11-22T13:38:03.240Z,11.08
2022-11-22T13:40:44.162Z,11.05
2022-11-22T13:43:19.637Z,11.07
2022-11-22T13:46:28.832Z,11.07
2022-11-22T13:48:55.767Z,11.14
2022-11-22T13:52:05.210Z,11.16
2022-11-22T13:54:38.198Z,11.13
2022-11-22T13:57:33.405Z,11.03
2022-11-22T14:00:12.260Z,11.01
2022-11-22T14:03:09.108Z,10.86
2022-11-22T14:05:42.077Z,10.82
2022-11-22T14:08:30.438Z,10.59
2022-11-22T14:10:57.385Z,10.52
2022-11-22T14:13:44.043Z,10.39
2022-11-22T14:16:23.947Z,10.37
2022-11-22T14:19:23.356Z,10.33
2022-11-22T14:21:52.962Z,10.23
2022-11-22T14:24:46.116Z,10.31
2022-11-22T14:27:15.878Z,10.36
2022-11-22T14:30:01.013Z,10.32
2022-11-22T14:32:41.695Z,10.24
2022-11-22T14:35:29.479Z,10.24
2022-11-22T14:38:07.278Z,10.21
2022-11-22T14:40:41.503Z,10.23
2022-11-22T14:43:11.116Z,10.23
2022-11-22T14:45:50.954Z,10.25
2022-11-22T14:48:19.784Z,10.32
2022-11-22T14:51:01.726Z,10.38
2022-11-22T14:53:49.047Z,10.35
2022-11-22T14:56:26.929Z,10.40
2022-11-22T14:59:14.035Z,10.35
2022-11-22T15:01:47.974Z,10.35
2022-11-22T15:09:11.064Z,10.41
2022-11-22T15:09:19.843Z,10.30
2022-11-22T15:11:05.314Z,10.21
2022-11-22T15:57:24.539Z,10.27
2022-11-22T15:59:54.519Z,10.27
2022-11-22T16:02:33.279Z,10.35
2022-11-22T16:06:08.767Z,10.40
2022-11-22T16:07:49.912Z,10.40
2022-11-22T16:10:42.714Z,10.37
2022-11-22T16:13:24.464Z,10.42
2022-11-22T16:16:12.832Z,10.45
2022-11-22T16:18:40.802Z,10.46
2022-11-22T16:21:11.376Z,10.55
2022-11-22T16:23:39.851Z,10.59
2022-11-22T16:26:30.098Z,10.60
2022-11-22T16:29:16.435Z,10.63
2022-11-22T16:31:43.231Z,10.63
2022-11-22T16:34:15.822Z,10.70
2022-11-22T16:36:42.760Z,10.78
2022-11-22T16:39:09.961Z,10.82
2022-11-22T16:41:36.858Z,10.78
2022-11-22T16:44:11.101Z,10.77
2022-11-22T16:46:37.914Z,10.90
2022-11-22T16:49:19.199Z,10.87
2022-11-22T16:51:47.923Z,10.98
2022-11-22T16:54:18.090Z,11.02
2022-11-22T16:56:46.125Z,11.00
2022-11-22T16:59:13.080Z,10.80
2022-11-22T17:01:44.315Z,10.67
2022-11-22T17:04:26.277Z,10.75
2022-11-22T17:06:54.112Z,10.65
2022-11-22T17:09:20.927Z,10.57
2022-11-22T17:11:47.950Z,10.61
2022-11-22T17:14:16.455Z,10.70
2022-11-22T17:16:43.997Z,10.68
2022-11-22T17:19:30.244Z,10.53
2022-11-22T17:21:57.678Z,10.66
2022-11-22T17:24:24.600Z,10.69
2022-11-22T17:26:51.587Z,10.62
2022-11-22T17:29:43.471Z,10.61
2022-11-22T17:32:05.694Z,10.61
2022-11-22T17:34:32.910Z,10.70
2022-11-22T17:36:59.970Z,10.70
2022-11-22T17:39:26.831Z,10.78
2022-11-22T17:41:53.611Z,10.82
2022-11-22T17:44:20.583Z,10.87
2022-11-22T17:46:47.432Z,10.94
2022-11-22T17:49:16.273Z,10.86
2022-11-22T17:51:43.648Z,10.88
2022-11-22T17:54:10.719Z,10.97
2022-11-22T17:56:37.763Z,11.00
2022-11-22T17:59:05.017Z,11.04
2022-11-22T18:01:32.354Z,11.04
2022-11-22T18:03:59.442Z,11.14
2022-11-22T18:06:26.677Z,11.03
2022-11-22T18:08:53.740Z,10.97
2022-11-22T18:11:20.693Z,10.98
2022-11-22T18:13:47.661Z,11.02
2022-11-22T18:16:18.328Z,11.04
2022-11-22T18:19:01.085Z,11.03
2022-11-22T18:21:29.654Z,11.10
2022-11-22T18:24:00.676Z,11.17
2022-11-22T18:26:43.928Z,11.22
2022-11-22T18:32:00.344Z,11.28
2022-11-22T18:34:27.894Z,11.36
2022-11-22T18:36:57.617Z,11.34
2022-11-22T18:39:30.590Z,11.39
2022-11-22T18:41:57.906Z,11.40
2022-11-22T18:44:24.884Z,11.37
2022-11-22T18:46:51.965Z,11.36
2022-11-22T18:49:19.227Z,11.37
2022-11-22T18:51:46.263Z,11.47
2022-11-22T18:54:13.483Z,11.40
2022-11-22T18:56:41.022Z,11.47
2022-11-22T18:59:12.593Z,11.53
2022-11-22T19:01:40.933Z,11.57
2022-11-22T19:04:09.657Z,11.59
2022-11-22T19:06:36.539Z,11.57
2022-11-22T19:09:03.765Z,11.54
2022-11-22T19:11:32.223Z,11.56
2022-11-22T19:13:59.598Z,11.61
2022-11-22T19:16:29.657Z,11.65
2022-11-22T19:18:57.536Z,11.76
2022-11-22T19:21:26.913Z,11.74
2022-11-22T19:23:54.748Z,11.74
2022-11-22T19:26:23.773Z,11.80
2022-11-22T19:28:55.607Z,11.85
2022-11-22T19:31:24.572Z,11.81
2022-11-22T19:33:51.490Z,11.83
2022-11-22T19:36:20.975Z,11.90
2022-11-22T19:38:48.631Z,11.98
2022-11-22T19:41:17.931Z,11.92
2022-11-22T19:43:45.232Z,12.01
2022-11-22T19:46:12.452Z,12.06
2022-11-22T19:48:45.399Z,12.12
2022-11-22T19:51:15.705Z,12.18
2022-11-22T19:53:42.577Z,12.18
2022-11-22T19:56:16.187Z,12.16
2022-11-22T19:58:44.620Z,12.12
2022-11-22T20:01:15.661Z,12.18
2022-11-22T20:03:43.628Z,12.19
2022-11-22T20:06:13.640Z,12.27
2022-11-22T20:08:41.159Z,12.26
2022-11-22T20:11:13.833Z,12.23
2022-11-22T20:13:46.135Z,12.29
2022-11-22T20:16:26.148Z,12.34
2022-11-22T20:18:57.747Z,12.37
2022-11-22T20:21:26.165Z,12.36
2022-11-22T20:23:53.682Z,12.37
2022-11-22T20:26:21.726Z,12.41
2022-11-22T20:29:01.029Z,12.41
2022-11-22T20:31:31.259Z,12.37
2022-11-22T20:33:59.946Z,12.37
2022-11-22T20:36:31.971Z,12.35
2022-11-22T20:39:00.421Z,12.35
2022-11-22T20:41:30.515Z,12.39
2022-11-22T20:43:57.365Z,12.41
2022-11-22T20:46:28.739Z,12.45
2022-11-22T20:48:56.809Z,12.52
2022-11-22T20:51:26.230Z,12.53
2022-11-22T20:53:56.496Z,12.49
2022-11-22T20:56:24.235Z,12.52
2022-11-22T20:58:52.394Z,12.45
2022-11-22T21:01:24.725Z,12.54
2022-11-22T21:03:52.607Z,12.48
2022-11-22T21:06:21.065Z,12.45
2022-11-22T21:08:48.068Z,12.46
2022-11-22T21:11:20.453Z,12.55
2022-11-22T21:13:47.910Z,12.52
2022-11-22T21:16:24.486Z,12.54
2022-11-22T21:18:53.643Z,12.54
2022-11-22T21:21:24.831Z,12.60
2022-11-22T21:23:53.844Z,12.57
2022-11-22T21:26:21.902Z,12.63
2022-11-22T21:28:49.023Z,12.61
2022-11-22T21:31:16.374Z,12.51
2022-11-22T21:33:43.543Z,12.50
2022-11-22T21:36:13.250Z,12.48
2022-11-22T21:38:40.328Z,12.51
2022-11-22T21:41:41.837Z,12.52
2022-11-22T21:43:59.225Z,12.50
2022-11-22T21:46:26.252Z,12.59
2022-11-22T21:48:55.957Z,12.66
2022-11-22T21:51:26.007Z,12.62
2022-11-22T21:53:57.656Z,12.61
2022-11-22T21:56:24.680Z,12.65
2022-11-22T21:58:51.563Z,12.68
2022-11-22T22:01:18.541Z,12.66
2022-11-22T22:03:45.441Z,12.62
2022-11-22T22:06:12.249Z,12.66
2022-11-22T22:08:40.751Z,12.66
2022-11-22T22:11:08.142Z,12.67
2022-11-22T22:13:35.176Z,12.64
2022-11-22T22:16:06.783Z,12.61
2022-11-22T22:18:36.377Z,12.59
2022-11-22T22:21:04.602Z,12.60
2022-11-22T22:23:32.224Z,12.68
2022-11-22T22:26:01.053Z,12.60
2022-11-22T22:28:29.602Z,12.60
2022-11-22T22:31:11.086Z,12.46
2022-11-22T22:33:40.524Z,12.41
2022-11-22T22:36:08.825Z,12.36
2022-11-22T22:38:36.187Z,12.38
2022-11-22T22:41:05.427Z,12.35
2022-11-22T22:43:35.015Z,12.41
2022-11-22T22:46:06.733Z,12.50
2022-11-22T22:48:36.807Z,12.62
2022-11-22T22:51:18.715Z,12.72
2022-11-22T22:53:46.547Z,12.78
2022-11-22T22:56:14.594Z,12.80
2022-11-22T22:58:41.658Z,12.87
2022-11-22T23:01:17.445Z,12.88
2022-11-22T23:03:53.155Z,12.95
2022-11-22T23:06:21.070Z,12.97
2022-11-22T23:08:49.735Z,12.96
2022-11-22T23:11:19.139Z,12.96
2022-11-22T23:13:46.202Z,13.05
2022-11-22T23:16:14.566Z,13.01
2022-11-22T23:18:43.877Z,13.05
2022-11-22T23:21:13.218Z,13.08
2022-11-22T23:23:40.426Z,13.02
2022-11-22T23:26:10.668Z,13.15
2022-11-22T23:28:38.604Z,13.17
2022-11-22T23:31:11.262Z,13.19
2022-11-22T23:33:38.673Z,13.17
2022-11-22T23:36:11.014Z,13.14
2022-11-22T23:38:38.137Z,13.18
2022-11-22T23:41:05.158Z,13.15
2022-11-22T23:43:32.313Z,13.16
2022-11-22T23:45:59.330Z,13.22
2022-11-22T23:48:27.308Z,13.18
2022-11-22T23:50:54.228Z,13.24
2022-11-22T23:53:21.358Z,13.28
2022-11-22T23:55:48.221Z,13.35
2022-11-22T23:58:15.035Z,13.37
